Kaami — C6VO9 — position and weather

sailwx.info

Track history (hours):
 
Tides and Currents Weather Stations Pressure Air Temp Water Temp Dewpoint Dewpoint Depression Visibility Wind Speed Wind Dir Waves Ship Positions

Kaami

Last reported at 2018-Apr-26 21:35 UTC. Time now 2018-Apr-26 23:13 UTC.
Position N 50°19' E 000°08'.

Length 90 m; draft 5.7 m.

Type: Cargo ship. MMSI: 308542000.

Date/timePositionNaut miles runAvg speedWind from/ knotsBaromVisibWave heightAir tempDewpointWater temp
2018-Apr-26 21:35N 50°19' E 000°08'2 9.9
2018-Apr-26 21:20N 50°18' E 000°04'310.1
2018-Apr-26 21:00N 50°17' W 000°01'510.5
2018-Apr-26 20:30N 50°16' W 000°09'510.9
2018-Apr-26 20:00N 50°14' W 000°17'611.4
2018-Apr-26 19:30N 50°13' W 000°25'611.9
2018-Apr-26 19:00N 50°11' W 000°35'612.2
2018-Apr-26 18:30N 50°10' W 000°44'612.6
2018-Apr-26 18:00N 50°08' W 000°53'712.8
2018-Apr-26 17:29N 50°06' W 001°03'  
2018-Apr-22 20:53N 39°30' W 009°50'4 8.5
2018-Apr-22 20:28N 39°27' W 009°50'4 8.5
2018-Apr-22 20:00N 39°23' W 009°50'4 8.4
2018-Apr-22 19:30N 39°18' W 009°50'4 8.6
2018-Apr-22 18:59N 39°14' W 009°50'4 8.3
2018-Apr-22 18:29N 39°10' W 009°50'4 8.3
2018-Apr-22 18:00N 39°06' W 009°50'4 8.3
2018-Apr-22 17:30N 39°02' W 009°50'4 8.5
2018-Apr-22 17:00N 38°57' W 009°50'4 8.5
2018-Apr-22 16:30N 38°53' W 009°50'4 8.8
2018-Apr-22 16:00N 38°49' W 009°51'5 9.1
2018-Apr-22 15:30N 38°44' W 009°51'5 9.1
2018-Apr-22 15:00N 38°40' W 009°49'5 9.1
2018-Apr-22 14:30N 38°36' W 009°48'5 9.4
2018-Apr-22 14:00N 38°31' W 009°46'5 9.4
2018-Apr-22 13:30N 38°26' W 009°45'5 9.4
2018-Apr-22 13:00N 38°22' W 009°43'5 9.2
2018-Apr-22 12:25N 38°17' W 009°42'4 9.1
2018-Apr-22 11:57N 38°12' W 009°40'4 9.1
2018-Apr-22 11:30N 38°08' W 009°39'4 8.8
2018-Apr-22 11:00N 38°04' W 009°38'4 8.7
2018-Apr-22 10:30N 37°60' W 009°37'7 9.2
2018-Apr-22 09:48N 37°53' W 009°36'3 9.0
2018-Apr-22 09:30N 37°51' W 009°36'5 9.1
2018-Apr-22 09:00N 37°46' W 009°34'220 8.1
2018-Apr-21 05:53N 35°59' W 005°34'3 8.4
2018-Apr-21 05:30N 35°60' W 005°30'4 7.8
2018-Apr-21 05:00N 36°01' W 005°26'3 7.0
2018-Apr-21 04:30N 36°02' W 005°21'3 6.6
2018-Apr-21 04:00N 36°03' W 005°17'5 8.4
2018-Apr-21 03:25N 36°04' W 005°11'212 8.6
2018-Apr-20 02:49N 37°15' W 001°02'410.1
2018-Apr-20 02:27N 37°18' W 000°59'410.0
2018-Apr-20 02:00N 37°20' W 000°54'5 9.9
2018-Apr-20 01:29N 37°24' W 000°49'5 9.7
2018-Apr-20 01:00N 37°27' W 000°45'5 9.4
2018-Apr-20 00:30N 37°30' W 000°40'5 9.2
2018-Apr-20 00:00N 37°33' W 000°36'4 8.7
2018-Apr-19 23:30N 37°37' W 000°33'5 9.5
2018-Apr-19 23:00N 37°41' W 000°35'5 9.8
2018-Apr-19 22:30N 37°46' W 000°36'9 9.5
2018-Apr-19 21:35N 37°54' W 000°40'1 9.2
2018-Apr-19 21:30N 37°55' W 000°40'3 6.0
2018-Apr-19 21:00N 37°58' W 000°41'0 0.2
2018-Apr-19 20:22N 37°58' W 000°41'0 0.0
2018-Apr-19 18:22N 37°58' W 000°41'0 0.0
2018-Apr-19 17:58N 37°58' W 000°41'0 0.0
2018-Apr-19 17:22N 37°58' W 000°41'0 0.0
2018-Apr-19 16:58N 37°58' W 000°41'0 0.0
2018-Apr-19 16:28N 37°58' W 000°41'0 0.0
2018-Apr-19 15:58N 37°58' W 000°41'0 0.0
2018-Apr-19 15:28N 37°58' W 000°41'0 0.0
2018-Apr-19 14:58N 37°58' W 000°41'0 0.0
2018-Apr-19 14:28N 37°58' W 000°41'0 0.0
2018-Apr-19 13:46N 37°58' W 000°41'0 0.0
2018-Apr-19 13:28N 37°58' W 000°41'0 0.0
2018-Apr-19 12:52N 37°58' W 000°41'0 0.0
2018-Apr-19 12:28N 37°58' W 000°41'0 0.0
2018-Apr-19 11:58N 37°58' W 000°41'0 0.0
2018-Apr-19 11:28N 37°58' W 000°41'0 0.0
2018-Apr-19 10:52N 37°58' W 000°41'0 0.0
2018-Apr-19 10:28N 37°58' W 000°41'0 0.0
2018-Apr-19 09:58N 37°58' W 000°41'0 0.0
2018-Apr-19 09:28N 37°58' W 000°41'0 0.0
2018-Apr-19 08:58N 37°58' W 000°41'0 0.0
2018-Apr-19 08:22N 37°58' W 000°41'0 0.0
2018-Apr-19 07:40N 37°58' W 000°41'0 0.0
2018-Apr-19 07:28N 37°58' W 000°41'0 0.0
2018-Apr-19 06:46N 37°58' W 000°41'0 0.0
2018-Apr-19 06:22N 37°58' W 000°41'0 0.0
2018-Apr-19 05:58N 37°58' W 000°41'0 0.0
2018-Apr-19 05:22N 37°58' W 000°41'0 0.0
2018-Apr-19 04:58N 37°58' W 000°41'0 0.0
2018-Apr-19 04:22N 37°58' W 000°41'0 0.0
2018-Apr-19 03:58N 37°58' W 000°41'0 0.0
2018-Apr-19 03:16N 37°58' W 000°41'0 0.0
2018-Apr-19 02:58N 37°58' W 000°41'0 0.0
2018-Apr-19 02:22N 37°58' W 000°41'0 0.0
2018-Apr-19 02:00N 37°58' W 000°41'1 1.1
2018-Apr-19 01:29N 37°58' W 000°41'3 5.9
2018-Apr-19 01:00N 37°58' W 000°38'510.5
2018-Apr-19 00:30N 38°01' W 000°32'510.3
2018-Apr-18 23:59N 38°05' W 000°27'610.3
2018-Apr-18 23:24N 38°09' W 000°21'410.6
2018-Apr-18 22:59N 38°12' W 000°18'510.3
2018-Apr-18 22:29N 38°16' W 000°14'910.2
2018-Apr-18 21:34N 38°23' W 000°05'110.3
2018-Apr-18 21:30N 38°23' W 000°05'510.2
2018-Apr-18 21:00N 38°27' E 000°00'510.4
2018-Apr-18 20:30N 38°30' E 000°05'510.1
2018-Apr-18 20:00N 38°33' E 000°10'5 9.9
2018-Apr-18 19:30N 38°37' E 000°15'510.1
2018-Apr-18 19:00N 38°40' E 000°20'510.1
2018-Apr-18 18:30N 38°44' E 000°23'5210.1
2018-Apr-18 13:21N 39°30' W 000°07'410.8
2018-Apr-18 12:56N 39°34' W 000°10'4 9.9
2018-Apr-18 12:30N 39°38' W 000°13'  
Track history (hours):
 
Tides and Currents Weather Stations Pressure Air Temp Water Temp Dewpoint Dewpoint Depression Visibility Wind Speed Wind Dir Waves Ship Positions

Kaami

Last reported at 2018-Apr-26 21:35 UTC. Time now 2018-Apr-26 23:13 UTC.
Position N 50°19' E 000°08'.

Length 90 m; draft 5.7 m.

Type: Cargo ship. MMSI: 308542000.

Date/timePositionNaut miles runAvg speedWind from/ knotsBaromVisibWave heightAir tempDewpointWater temp
2018-Apr-26 21:35N 50°19' E 000°08'2 9.9
2018-Apr-26 21:20N 50°18' E 000°04'310.1
2018-Apr-26 21:00N 50°17' W 000°01'510.5
2018-Apr-26 20:30N 50°16' W 000°09'510.9
2018-Apr-26 20:00N 50°14' W 000°17'611.4
2018-Apr-26 19:30N 50°13' W 000°25'611.9
2018-Apr-26 19:00N 50°11' W 000°35'612.2
2018-Apr-26 18:30N 50°10' W 000°44'612.6
2018-Apr-26 18:00N 50°08' W 000°53'712.8
2018-Apr-26 17:29N 50°06' W 001°03'  
2018-Apr-22 20:53N 39°30' W 009°50'4 8.5
2018-Apr-22 20:28N 39°27' W 009°50'4 8.5
2018-Apr-22 20:00N 39°23' W 009°50'4 8.4
2018-Apr-22 19:30N 39°18' W 009°50'4 8.6
2018-Apr-22 18:59N 39°14' W 009°50'4 8.3
2018-Apr-22 18:29N 39°10' W 009°50'4 8.3
2018-Apr-22 18:00N 39°06' W 009°50'4 8.3
2018-Apr-22 17:30N 39°02' W 009°50'4 8.5
2018-Apr-22 17:00N 38°57' W 009°50'4 8.5
2018-Apr-22 16:30N 38°53' W 009°50'4 8.8
2018-Apr-22 16:00N 38°49' W 009°51'5 9.1
2018-Apr-22 15:30N 38°44' W 009°51'5 9.1
2018-Apr-22 15:00N 38°40' W 009°49'5 9.1
2018-Apr-22 14:30N 38°36' W 009°48'5 9.4
2018-Apr-22 14:00N 38°31' W 009°46'5 9.4
2018-Apr-22 13:30N 38°26' W 009°45'5 9.4
2018-Apr-22 13:00N 38°22' W 009°43'5 9.2
2018-Apr-22 12:25N 38°17' W 009°42'4 9.1
2018-Apr-22 11:57N 38°12' W 009°40'4 9.1
2018-Apr-22 11:30N 38°08' W 009°39'4 8.8
2018-Apr-22 11:00N 38°04' W 009°38'4 8.7
2018-Apr-22 10:30N 37°60' W 009°37'7 9.2
2018-Apr-22 09:48N 37°53' W 009°36'3 9.0
2018-Apr-22 09:30N 37°51' W 009°36'5 9.1
2018-Apr-22 09:00N 37°46' W 009°34'220 8.1
2018-Apr-21 05:53N 35°59' W 005°34'3 8.4
2018-Apr-21 05:30N 35°60' W 005°30'4 7.8
2018-Apr-21 05:00N 36°01' W 005°26'3 7.0
2018-Apr-21 04:30N 36°02' W 005°21'3 6.6
2018-Apr-21 04:00N 36°03' W 005°17'5 8.4
2018-Apr-21 03:25N 36°04' W 005°11'212 8.6
2018-Apr-20 02:49N 37°15' W 001°02'410.1
2018-Apr-20 02:27N 37°18' W 000°59'410.0
2018-Apr-20 02:00N 37°20' W 000°54'5 9.9
2018-Apr-20 01:29N 37°24' W 000°49'5 9.7
2018-Apr-20 01:00N 37°27' W 000°45'5 9.4
2018-Apr-20 00:30N 37°30' W 000°40'5 9.2
2018-Apr-20 00:00N 37°33' W 000°36'4 8.7
2018-Apr-19 23:30N 37°37' W 000°33'5 9.5
2018-Apr-19 23:00N 37°41' W 000°35'5 9.8
2018-Apr-19 22:30N 37°46' W 000°36'9 9.5
2018-Apr-19 21:35N 37°54' W 000°40'1 9.2
2018-Apr-19 21:30N 37°55' W 000°40'3 6.0
2018-Apr-19 21:00N 37°58' W 000°41'0 0.2
2018-Apr-19 20:22N 37°58' W 000°41'0 0.0
2018-Apr-19 18:22N 37°58' W 000°41'0 0.0
2018-Apr-19 17:58N 37°58' W 000°41'0 0.0
2018-Apr-19 17:22N 37°58' W 000°41'0 0.0
2018-Apr-19 16:58N 37°58' W 000°41'0 0.0
2018-Apr-19 16:28N 37°58' W 000°41'0 0.0
2018-Apr-19 15:58N 37°58' W 000°41'0 0.0
2018-Apr-19 15:28N 37°58' W 000°41'0 0.0
2018-Apr-19 14:58N 37°58' W 000°41'0 0.0
2018-Apr-19 14:28N 37°58' W 000°41'0 0.0
2018-Apr-19 13:46N 37°58' W 000°41'0 0.0
2018-Apr-19 13:28N 37°58' W 000°41'0 0.0
2018-Apr-19 12:52N 37°58' W 000°41'0 0.0
2018-Apr-19 12:28N 37°58' W 000°41'0 0.0
2018-Apr-19 11:58N 37°58' W 000°41'0 0.0
2018-Apr-19 11:28N 37°58' W 000°41'0 0.0
2018-Apr-19 10:52N 37°58' W 000°41'0 0.0
2018-Apr-19 10:28N 37°58' W 000°41'0 0.0
2018-Apr-19 09:58N 37°58' W 000°41'0 0.0
2018-Apr-19 09:28N 37°58' W 000°41'0 0.0
2018-Apr-19 08:58N 37°58' W 000°41'0 0.0
2018-Apr-19 08:22N 37°58' W 000°41'0 0.0
2018-Apr-19 07:40N 37°58' W 000°41'0 0.0
2018-Apr-19 07:28N 37°58' W 000°41'0 0.0
2018-Apr-19 06:46N 37°58' W 000°41'0 0.0
2018-Apr-19 06:22N 37°58' W 000°41'0 0.0
2018-Apr-19 05:58N 37°58' W 000°41'0 0.0
2018-Apr-19 05:22N 37°58' W 000°41'0 0.0
2018-Apr-19 04:58N 37°58' W 000°41'0 0.0
2018-Apr-19 04:22N 37°58' W 000°41'0 0.0
2018-Apr-19 03:58N 37°58' W 000°41'0 0.0
2018-Apr-19 03:16N 37°58' W 000°41'0 0.0
2018-Apr-19 02:58N 37°58' W 000°41'0 0.0
2018-Apr-19 02:22N 37°58' W 000°41'0 0.0
2018-Apr-19 02:00N 37°58' W 000°41'1 1.1
2018-Apr-19 01:29N 37°58' W 000°41'3 5.9
2018-Apr-19 01:00N 37°58' W 000°38'510.5
2018-Apr-19 00:30N 38°01' W 000°32'510.3
2018-Apr-18 23:59N 38°05' W 000°27'610.3
2018-Apr-18 23:24N 38°09' W 000°21'410.6
2018-Apr-18 22:59N 38°12' W 000°18'510.3
2018-Apr-18 22:29N 38°16' W 000°14'910.2
2018-Apr-18 21:34N 38°23' W 000°05'110.3
2018-Apr-18 21:30N 38°23' W 000°05'510.2
2018-Apr-18 21:00N 38°27' E 000°00'510.4
2018-Apr-18 20:30N 38°30' E 000°05'510.1
2018-Apr-18 20:00N 38°33' E 000°10'5 9.9
2018-Apr-18 19:30N 38°37' E 000°15'510.1
2018-Apr-18 19:00N 38°40' E 000°20'510.1
2018-Apr-18 18:30N 38°44' E 000°23'5210.1
2018-Apr-18 13:21N 39°30' W 000°07'410.8
2018-Apr-18 12:56N 39°34' W 000°10'4 9.9
2018-Apr-18 12:30N 39°38' W 000°13'  

Dump ship's entire track history